sensor_id;sensor_type;location;lat;lon;timestamp;P1;durP1;ratioP1;P2;durP2;ratioP2
19219;SDS011;9744;49.364;7.484;2024-03-07T00:02:20;63.35;;;33.58;;
19219;SDS011;9744;49.364;7.484;2024-03-07T00:04:49;63.67;;;33.97;;
19219;SDS011;9744;49.364;7.484;2024-03-07T00:07:17;65.78;;;33.35;;
19219;SDS011;9744;49.364;7.484;2024-03-07T00:09:44;67.57;;;34.70;;
19219;SDS011;9744;49.364;7.484;2024-03-07T00:12:11;66.43;;;34.50;;
19219;SDS011;9744;49.364;7.484;2024-03-07T00:14:39;69.95;;;34.60;;
19219;SDS011;9744;49.364;7.484;2024-03-07T00:17:08;69.85;;;35.95;;
19219;SDS011;9744;49.364;7.484;2024-03-07T00:19:35;67.93;;;35.95;;
19219;SDS011;9744;49.364;7.484;2024-03-07T00:22:02;63.58;;;34.95;;
19219;SDS011;9744;49.364;7.484;2024-03-07T00:24:30;66.15;;;33.75;;
19219;SDS011;9744;49.364;7.484;2024-03-07T00:26:57;63.05;;;34.28;;
19219;SDS011;9744;49.364;7.484;2024-03-07T00:29:24;63.10;;;33.45;;
19219;SDS011;9744;49.364;7.484;2024-03-07T00:31:54;69.65;;;33.72;;
19219;SDS011;9744;49.364;7.484;2024-03-07T00:34:23;68.28;;;33.65;;
19219;SDS011;9744;49.364;7.484;2024-03-07T00:36:51;72.28;;;35.70;;
19219;SDS011;9744;49.364;7.484;2024-03-07T00:39:18;66.43;;;35.20;;
19219;SDS011;9744;49.364;7.484;2024-03-07T00:41:46;67.65;;;35.20;;
19219;SDS011;9744;49.364;7.484;2024-03-07T00:44:13;62.97;;;33.72;;
19219;SDS011;9744;49.364;7.484;2024-03-07T00:46:41;66.75;;;34.13;;
19219;SDS011;9744;49.364;7.484;2024-03-07T00:49:09;62.95;;;34.08;;
19219;SDS011;9744;49.364;7.484;2024-03-07T00:51:37;73.68;;;35.15;;
19219;SDS011;9744;49.364;7.484;2024-03-07T00:54:05;63.10;;;34.03;;
19219;SDS011;9744;49.364;7.484;2024-03-07T00:56:32;67.15;;;34.58;;
19219;SDS011;9744;49.364;7.484;2024-03-07T00:59:01;67.07;;;34.55;;
19219;SDS011;9744;49.364;7.484;2024-03-07T01:01:28;66.10;;;35.50;;
19219;SDS011;9744;49.364;7.484;2024-03-07T01:03:58;66.20;;;34.80;;
19219;SDS011;9744;49.364;7.484;2024-03-07T01:06:25;69.38;;;34.88;;
19219;SDS011;9744;49.364;7.484;2024-03-07T01:08:54;70.13;;;35.95;;
19219;SDS011;9744;49.364;7.484;2024-03-07T01:11:21;69.40;;;34.88;;
19219;SDS011;9744;49.364;7.484;2024-03-07T01:13:49;69.75;;;34.28;;
19219;SDS011;9744;49.364;7.484;2024-03-07T01:16:16;66.63;;;34.72;;
19219;SDS011;9744;49.364;7.484;2024-03-07T01:18:43;70.22;;;34.95;;
19219;SDS011;9744;49.364;7.484;2024-03-07T01:21:10;67.80;;;35.28;;
19219;SDS011;9744;49.364;7.484;2024-03-07T01:23:38;69.18;;;35.90;;
19219;SDS011;9744;49.364;7.484;2024-03-07T01:26:07;66.78;;;34.35;;
19219;SDS011;9744;49.364;7.484;2024-03-07T01:28:34;68.30;;;34.97;;
19219;SDS011;9744;49.364;7.484;2024-03-07T01:31:02;66.00;;;35.03;;
19219;SDS011;9744;49.364;7.484;2024-03-07T01:33:29;69.75;;;35.88;;
19219;SDS011;9744;49.364;7.484;2024-03-07T01:35:56;67.97;;;34.03;;
19219;SDS011;9744;49.364;7.484;2024-03-07T01:38:23;63.75;;;33.60;;
19219;SDS011;9744;49.364;7.484;2024-03-07T01:40:51;63.45;;;33.20;;
19219;SDS011;9744;49.364;7.484;2024-03-07T01:43:19;64.15;;;34.53;;
19219;SDS011;9744;49.364;7.484;2024-03-07T01:45:47;65.35;;;33.50;;
19219;SDS011;9744;49.364;7.484;2024-03-07T01:48:16;64.25;;;34.00;;
19219;SDS011;9744;49.364;7.484;2024-03-07T01:50:51;61.08;;;32.65;;
19219;SDS011;9744;49.364;7.484;2024-03-07T01:53:18;66.35;;;34.20;;
19219;SDS011;9744;49.364;7.484;2024-03-07T01:55:45;58.08;;;33.05;;
19219;SDS011;9744;49.364;7.484;2024-03-07T01:58:13;63.13;;;32.90;;
19219;SDS011;9744;49.364;7.484;2024-03-07T02:00:45;64.38;;;33.35;;
19219;SDS011;9744;49.364;7.484;2024-03-07T02:03:13;71.47;;;35.92;;
19219;SDS011;9744;49.364;7.484;2024-03-07T02:05:40;64.63;;;34.50;;
19219;SDS011;9744;49.364;7.484;2024-03-07T02:08:09;65.40;;;33.85;;
19219;SDS011;9744;49.364;7.484;2024-03-07T02:10:36;65.68;;;34.63;;
19219;SDS011;9744;49.364;7.484;2024-03-07T02:13:04;66.85;;;35.17;;
19219;SDS011;9744;49.364;7.484;2024-03-07T02:15:31;68.90;;;35.50;;
19219;SDS011;9744;49.364;7.484;2024-03-07T02:18:00;64.15;;;34.90;;
19219;SDS011;9744;49.364;7.484;2024-03-07T02:20:28;66.78;;;34.53;;
19219;SDS011;9744;49.364;7.484;2024-03-07T02:22:56;66.57;;;36.47;;
19219;SDS011;9744;49.364;7.484;2024-03-07T02:25:23;70.28;;;37.17;;
19219;SDS011;9744;49.364;7.484;2024-03-07T02:31:17;72.90;;;38.42;;
19219;SDS011;9744;49.364;7.484;2024-03-07T02:33:45;73.18;;;37.13;;
19219;SDS011;9744;49.364;7.484;2024-03-07T02:36:20;78.38;;;39.28;;
19219;SDS011;9744;49.364;7.484;2024-03-07T02:38:49;71.57;;;37.22;;
19219;SDS011;9744;49.364;7.484;2024-03-07T03:05:10;78.45;;;39.28;;
19219;SDS011;9744;49.364;7.484;2024-03-07T03:07:37;75.45;;;38.17;;
19219;SDS011;9744;49.364;7.484;2024-03-07T03:10:05;76.80;;;38.63;;
19219;SDS011;9744;49.364;7.484;2024-03-07T03:12:35;72.82;;;37.25;;
19219;SDS011;9744;49.364;7.484;2024-03-07T03:15:03;80.53;;;38.53;;
19219;SDS011;9744;49.364;7.484;2024-03-07T03:18:15;78.50;;;38.30;;
19219;SDS011;9744;49.364;7.484;2024-03-07T03:20:45;77.68;;;39.53;;
19219;SDS011;9744;49.364;7.484;2024-03-07T03:23:13;72.72;;;37.20;;
19219;SDS011;9744;49.364;7.484;2024-03-07T03:25:41;77.97;;;37.35;;
19219;SDS011;9744;49.364;7.484;2024-03-07T03:28:08;76.13;;;38.03;;
19219;SDS011;9744;49.364;7.484;2024-03-07T03:30:36;69.95;;;36.35;;
19219;SDS011;9744;49.364;7.484;2024-03-07T03:33:04;72.95;;;37.38;;
19219;SDS011;9744;49.364;7.484;2024-03-07T03:35:33;73.10;;;36.22;;
19219;SDS011;9744;49.364;7.484;2024-03-07T03:38:02;77.30;;;37.88;;
19219;SDS011;9744;49.364;7.484;2024-03-07T03:40:31;75.10;;;38.20;;
19219;SDS011;9744;49.364;7.484;2024-03-07T03:42:59;69.47;;;35.72;;
19219;SDS011;9744;49.364;7.484;2024-03-07T03:45:27;71.25;;;37.03;;
19219;SDS011;9744;49.364;7.484;2024-03-07T03:47:55;80.10;;;38.53;;
19219;SDS011;9744;49.364;7.484;2024-03-07T03:50:22;76.03;;;36.15;;
19219;SDS011;9744;49.364;7.484;2024-03-07T03:52:49;73.95;;;36.92;;
19219;SDS011;9744;49.364;7.484;2024-03-07T03:55:18;71.70;;;35.63;;
19219;SDS011;9744;49.364;7.484;2024-03-07T03:57:45;68.32;;;35.78;;
19219;SDS011;9744;49.364;7.484;2024-03-07T04:00:13;73.35;;;37.13;;
19219;SDS011;9744;49.364;7.484;2024-03-07T04:02:43;65.05;;;33.90;;
19219;SDS011;9744;49.364;7.484;2024-03-07T04:05:13;61.78;;;34.53;;
19219;SDS011;9744;49.364;7.484;2024-03-07T04:07:41;65.28;;;33.22;;
19219;SDS011;9744;49.364;7.484;2024-03-07T04:10:09;65.22;;;35.00;;
19219;SDS011;9744;49.364;7.484;2024-03-07T04:12:39;67.10;;;35.08;;
19219;SDS011;9744;49.364;7.484;2024-03-07T04:15:08;69.10;;;35.88;;
19219;SDS011;9744;49.364;7.484;2024-03-07T04:17:37;67.63;;;35.05;;
19219;SDS011;9744;49.364;7.484;2024-03-07T04:20:05;64.82;;;35.08;;
19219;SDS011;9744;49.364;7.484;2024-03-07T04:22:35;70.60;;;36.58;;
19219;SDS011;9744;49.364;7.484;2024-03-07T04:25:04;66.80;;;36.72;;
19219;SDS011;9744;49.364;7.484;2024-03-07T04:27:33;84.55;;;38.28;;
19219;SDS011;9744;49.364;7.484;2024-03-07T04:30:04;67.63;;;36.15;;
19219;SDS011;9744;49.364;7.484;2024-03-07T04:32:32;74.82;;;36.78;;
19219;SDS011;9744;49.364;7.484;2024-03-07T04:35:00;75.10;;;37.17;;
19219;SDS011;9744;49.364;7.484;2024-03-07T04:37:32;72.18;;;35.67;;
19219;SDS011;9744;49.364;7.484;2024-03-07T04:40:03;75.65;;;37.78;;
19219;SDS011;9744;49.364;7.484;2024-03-07T04:42:41;73.80;;;36.78;;
19219;SDS011;9744;49.364;7.484;2024-03-07T04:45:10;67.65;;;34.80;;
19219;SDS011;9744;49.364;7.484;2024-03-07T04:47:39;74.82;;;38.28;;
19219;SDS011;9744;49.364;7.484;2024-03-07T04:50:07;75.72;;;37.10;;
19219;SDS011;9744;49.364;7.484;2024-03-07T04:52:36;75.00;;;37.28;;
19219;SDS011;9744;49.364;7.484;2024-03-07T04:55:08;68.45;;;35.28;;
19219;SDS011;9744;49.364;7.484;2024-03-07T04:57:36;73.07;;;35.47;;
19219;SDS011;9744;49.364;7.484;2024-03-07T08:30:02;49.25;;;26.38;;
19219;SDS011;9744;49.364;7.484;2024-03-07T08:32:32;53.70;;;28.35;;
19219;SDS011;9744;49.364;7.484;2024-03-07T08:35:02;51.60;;;28.73;;
19219;SDS011;9744;49.364;7.484;2024-03-07T08:38:23;59.05;;;28.65;;
19219;SDS011;9744;49.364;7.484;2024-03-07T08:40:51;50.00;;;27.75;;
19219;SDS011;9744;49.364;7.484;2024-03-07T08:43:18;47.58;;;26.90;;
19219;SDS011;9744;49.364;7.484;2024-03-07T08:45:47;44.38;;;25.70;;
19219;SDS011;9744;49.364;7.484;2024-03-07T08:48:14;45.45;;;25.30;;
19219;SDS011;9744;49.364;7.484;2024-03-07T09:11:33;51.13;;;27.02;;
19219;SDS011;9744;49.364;7.484;2024-03-07T09:23:06;39.63;;;22.27;;
19219;SDS011;9744;49.364;7.484;2024-03-07T09:25:35;36.38;;;21.55;;
19219;SDS011;9744;49.364;7.484;2024-03-07T09:28:03;37.25;;;22.40;;
19219;SDS011;9744;49.364;7.484;2024-03-07T09:30:32;38.95;;;21.30;;
19219;SDS011;9744;49.364;7.484;2024-03-07T09:39:12;42.63;;;22.75;;
19219;SDS011;9744;49.364;7.484;2024-03-07T09:42:02;38.63;;;22.98;;
19219;SDS011;9744;49.364;7.484;2024-03-07T09:44:31;43.28;;;23.50;;
19219;SDS011;9744;49.364;7.484;2024-03-07T09:46:59;37.83;;;22.33;;
19219;SDS011;9744;49.364;7.484;2024-03-07T09:49:28;34.50;;;20.90;;
19219;SDS011;9744;49.364;7.484;2024-03-07T09:51:56;39.60;;;21.35;;
19219;SDS011;9744;49.364;7.484;2024-03-07T09:54:25;34.67;;;19.25;;
19219;SDS011;9744;49.364;7.484;2024-03-07T09:56:56;35.50;;;20.73;;
19219;SDS011;9744;49.364;7.484;2024-03-07T09:59:28;35.63;;;20.23;;
19219;SDS011;9744;49.364;7.484;2024-03-07T10:02:02;35.40;;;20.02;;
19219;SDS011;9744;49.364;7.484;2024-03-07T10:04:35;37.28;;;22.02;;
19219;SDS011;9744;49.364;7.484;2024-03-07T10:07:06;33.83;;;20.27;;
19219;SDS011;9744;49.364;7.484;2024-03-07T10:09:37;32.15;;;19.40;;
19219;SDS011;9744;49.364;7.484;2024-03-07T10:12:06;31.85;;;19.58;;
19219;SDS011;9744;49.364;7.484;2024-03-07T10:14:36;34.75;;;19.52;;
19219;SDS011;9744;49.364;7.484;2024-03-07T10:17:03;34.63;;;19.00;;
19219;SDS011;9744;49.364;7.484;2024-03-07T10:19:31;62.17;;;33.20;;
19219;SDS011;9744;49.364;7.484;2024-03-07T10:21:58;42.00;;;24.10;;
19219;SDS011;9744;49.364;7.484;2024-03-07T10:24:27;31.48;;;17.30;;
19219;SDS011;9744;49.364;7.484;2024-03-07T10:26:54;30.75;;;17.80;;
19219;SDS011;9744;49.364;7.484;2024-03-07T10:29:23;29.33;;;17.65;;
19219;SDS011;9744;49.364;7.484;2024-03-07T10:31:52;24.80;;;16.42;;
19219;SDS011;9744;49.364;7.484;2024-03-07T10:34:19;34.92;;;20.92;;
19219;SDS011;9744;49.364;7.484;2024-03-07T10:36:49;27.52;;;17.02;;
19219;SDS011;9744;49.364;7.484;2024-03-07T10:39:17;25.65;;;16.58;;
19219;SDS011;9744;49.364;7.484;2024-03-07T10:41:47;25.23;;;15.95;;
19219;SDS011;9744;49.364;7.484;2024-03-07T10:44:18;26.95;;;16.23;;
19219;SDS011;9744;49.364;7.484;2024-03-07T10:46:50;23.38;;;15.23;;
19219;SDS011;9744;49.364;7.484;2024-03-07T10:49:20;25.25;;;15.40;;
19219;SDS011;9744;49.364;7.484;2024-03-07T10:51:57;21.10;;;14.55;;
19219;SDS011;9744;49.364;7.484;2024-03-07T10:54:33;22.42;;;15.10;;
19219;SDS011;9744;49.364;7.484;2024-03-07T10:57:10;34.33;;;20.45;;
19219;SDS011;9744;49.364;7.484;2024-03-07T10:59:49;31.10;;;16.67;;
19219;SDS011;9744;49.364;7.484;2024-03-07T11:02:33;33.88;;;20.50;;
19219;SDS011;9744;49.364;7.484;2024-03-07T11:05:11;33.38;;;19.20;;
19219;SDS011;9744;49.364;7.484;2024-03-07T11:07:40;26.90;;;16.92;;
19219;SDS011;9744;49.364;7.484;2024-03-07T11:10:10;27.05;;;15.57;;
19219;SDS011;9744;49.364;7.484;2024-03-07T11:12:38;24.38;;;14.52;;
19219;SDS011;9744;49.364;7.484;2024-03-07T11:15:06;24.08;;;15.15;;
19219;SDS011;9744;49.364;7.484;2024-03-07T11:17:41;25.58;;;14.25;;
19219;SDS011;9744;49.364;7.484;2024-03-07T11:20:19;22.33;;;14.60;;
19219;SDS011;9744;49.364;7.484;2024-03-07T11:22:47;25.52;;;15.93;;
19219;SDS011;9744;49.364;7.484;2024-03-07T11:25:17;25.58;;;14.82;;
19219;SDS011;9744;49.364;7.484;2024-03-07T11:27:51;20.67;;;13.98;;
19219;SDS011;9744;49.364;7.484;2024-03-07T11:30:21;23.17;;;14.98;;
19219;SDS011;9744;49.364;7.484;2024-03-07T11:32:50;21.88;;;14.50;;
19219;SDS011;9744;49.364;7.484;2024-03-07T11:35:20;22.88;;;15.13;;
19219;SDS011;9744;49.364;7.484;2024-03-07T11:37:56;21.83;;;14.32;;
19219;SDS011;9744;49.364;7.484;2024-03-07T11:43:11;21.40;;;14.43;;
19219;SDS011;9744;49.364;7.484;2024-03-07T11:45:38;22.98;;;15.30;;
19219;SDS011;9744;49.364;7.484;2024-03-07T11:48:11;24.30;;;15.48;;
19219;SDS011;9744;49.364;7.484;2024-03-07T11:50:40;33.67;;;19.10;;
19219;SDS011;9744;49.364;7.484;2024-03-07T11:53:08;46.15;;;27.25;;
19219;SDS011;9744;49.364;7.484;2024-03-07T11:55:36;31.77;;;20.25;;
19219;SDS011;9744;49.364;7.484;2024-03-07T11:58:11;35.67;;;19.75;;
19219;SDS011;9744;49.364;7.484;2024-03-07T12:00:41;27.38;;;16.27;;
19219;SDS011;9744;49.364;7.484;2024-03-07T12:03:12;22.80;;;14.48;;
19219;SDS011;9744;49.364;7.484;2024-03-07T12:05:40;26.67;;;15.70;;
19219;SDS011;9744;49.364;7.484;2024-03-07T12:08:09;24.80;;;15.93;;
19219;SDS011;9744;49.364;7.484;2024-03-07T12:10:37;29.52;;;15.77;;
19219;SDS011;9744;49.364;7.484;2024-03-07T12:13:05;25.77;;;16.02;;
19219;SDS011;9744;49.364;7.484;2024-03-07T12:15:36;27.42;;;15.90;;
19219;SDS011;9744;49.364;7.484;2024-03-07T12:18:05;24.20;;;16.13;;
19219;SDS011;9744;49.364;7.484;2024-03-07T12:20:37;24.45;;;15.90;;
19219;SDS011;9744;49.364;7.484;2024-03-07T12:23:08;25.02;;;16.27;;
19219;SDS011;9744;49.364;7.484;2024-03-07T12:25:37;29.23;;;16.33;;
19219;SDS011;9744;49.364;7.484;2024-03-07T12:28:05;22.40;;;15.48;;
19219;SDS011;9744;49.364;7.484;2024-03-07T12:30:37;27.50;;;15.68;;
19219;SDS011;9744;49.364;7.484;2024-03-07T12:33:15;22.45;;;15.32;;
19219;SDS011;9744;49.364;7.484;2024-03-07T12:35:44;27.48;;;15.88;;
19219;SDS011;9744;49.364;7.484;2024-03-07T12:38:13;26.38;;;15.73;;
19219;SDS011;9744;49.364;7.484;2024-03-07T12:40:41;23.02;;;15.43;;
19219;SDS011;9744;49.364;7.484;2024-03-07T12:43:12;26.15;;;16.23;;
19219;SDS011;9744;49.364;7.484;2024-03-07T12:45:47;26.23;;;15.77;;
19219;SDS011;9744;49.364;7.484;2024-03-07T12:48:15;24.33;;;15.57;;
19219;SDS011;9744;49.364;7.484;2024-03-07T12:50:46;23.83;;;15.40;;
19219;SDS011;9744;49.364;7.484;2024-03-07T12:53:18;22.27;;;14.25;;
19219;SDS011;9744;49.364;7.484;2024-03-07T12:55:47;30.67;;;15.00;;
19219;SDS011;9744;49.364;7.484;2024-03-07T12:58:15;23.85;;;15.25;;
19219;SDS011;9744;49.364;7.484;2024-03-07T13:00:43;22.27;;;14.50;;
19219;SDS011;9744;49.364;7.484;2024-03-07T13:03:10;24.23;;;14.88;;
19219;SDS011;9744;49.364;7.484;2024-03-07T13:05:39;22.75;;;14.68;;
19219;SDS011;9744;49.364;7.484;2024-03-07T13:08:09;23.27;;;14.85;;
19219;SDS011;9744;49.364;7.484;2024-03-07T13:10:38;24.88;;;15.50;;
19219;SDS011;9744;49.364;7.484;2024-03-07T13:13:06;22.10;;;14.90;;
19219;SDS011;9744;49.364;7.484;2024-03-07T13:15:36;27.52;;;15.52;;
19219;SDS011;9744;49.364;7.484;2024-03-07T13:18:05;27.08;;;15.98;;
19219;SDS011;9744;49.364;7.484;2024-03-07T13:20:34;24.40;;;14.13;;
19219;SDS011;9744;49.364;7.484;2024-03-07T13:23:02;20.02;;;13.63;;
19219;SDS011;9744;49.364;7.484;2024-03-07T13:25:32;21.70;;;13.50;;
19219;SDS011;9744;49.364;7.484;2024-03-07T13:28:00;21.27;;;14.38;;
19219;SDS011;9744;49.364;7.484;2024-03-07T13:30:29;22.55;;;14.60;;
19219;SDS011;9744;49.364;7.484;2024-03-07T13:32:58;23.75;;;15.13;;
19219;SDS011;9744;49.364;7.484;2024-03-07T13:35:26;24.33;;;13.88;;
19219;SDS011;9744;49.364;7.484;2024-03-07T13:37:53;23.10;;;15.00;;
19219;SDS011;9744;49.364;7.484;2024-03-07T13:40:22;22.80;;;13.70;;
19219;SDS011;9744;49.364;7.484;2024-03-07T13:42:52;22.98;;;14.88;;
19219;SDS011;9744;49.364;7.484;2024-03-07T13:45:21;26.35;;;14.77;;
19219;SDS011;9744;49.364;7.484;2024-03-07T13:47:49;24.48;;;15.15;;
19219;SDS011;9744;49.364;7.484;2024-03-07T13:50:18;23.17;;;14.55;;
19219;SDS011;9744;49.364;7.484;2024-03-07T13:52:47;25.58;;;16.20;;
19219;SDS011;9744;49.364;7.484;2024-03-07T13:55:41;25.60;;;16.15;;
19219;SDS011;9744;49.364;7.484;2024-03-07T13:58:20;32.75;;;19.63;;
19219;SDS011;9744;49.364;7.484;2024-03-07T14:01:00;28.70;;;17.27;;
19219;SDS011;9744;49.364;7.484;2024-03-07T14:03:56;26.13;;;17.15;;
19219;SDS011;9744;49.364;7.484;2024-03-07T14:06:42;26.17;;;17.10;;
19219;SDS011;9744;49.364;7.484;2024-03-07T14:09:26;27.23;;;16.40;;
19219;SDS011;9744;49.364;7.484;2024-03-07T14:18:14;28.42;;;17.27;;
19219;SDS011;9744;49.364;7.484;2024-03-07T14:21:16;28.23;;;17.42;;
19219;SDS011;9744;49.364;7.484;2024-03-07T14:24:08;29.40;;;17.55;;
19219;SDS011;9744;49.364;7.484;2024-03-07T14:27:15;27.08;;;16.83;;
19219;SDS011;9744;49.364;7.484;2024-03-07T14:29:52;31.05;;;17.88;;
19219;SDS011;9744;49.364;7.484;2024-03-07T14:32:31;31.10;;;17.33;;
19219;SDS011;9744;49.364;7.484;2024-03-07T14:35:00;32.33;;;18.80;;
19219;SDS011;9744;49.364;7.484;2024-03-07T14:37:34;31.90;;;17.75;;
19219;SDS011;9744;49.364;7.484;2024-03-07T14:40:06;30.88;;;17.50;;
19219;SDS011;9744;49.364;7.484;2024-03-07T14:42:37;35.42;;;18.02;;
19219;SDS011;9744;49.364;7.484;2024-03-07T14:45:10;33.78;;;17.63;;
19219;SDS011;9744;49.364;7.484;2024-03-07T14:47:43;30.60;;;18.65;;
19219;SDS011;9744;49.364;7.484;2024-03-07T14:50:11;36.17;;;18.02;;
19219;SDS011;9744;49.364;7.484;2024-03-07T14:52:41;33.03;;;18.92;;
19219;SDS011;9744;49.364;7.484;2024-03-07T14:55:10;30.05;;;17.98;;
19219;SDS011;9744;49.364;7.484;2024-03-07T14:57:42;31.38;;;18.58;;
19219;SDS011;9744;49.364;7.484;2024-03-07T15:00:11;32.72;;;19.88;;
19219;SDS011;9744;49.364;7.484;2024-03-07T15:02:47;31.70;;;19.15;;
19219;SDS011;9744;49.364;7.484;2024-03-07T15:05:15;34.83;;;20.60;;
19219;SDS011;9744;49.364;7.484;2024-03-07T15:07:45;32.13;;;17.85;;
19219;SDS011;9744;49.364;7.484;2024-03-07T15:10:14;28.60;;;16.73;;
19219;SDS011;9744;49.364;7.484;2024-03-07T15:12:45;28.95;;;17.30;;
19219;SDS011;9744;49.364;7.484;2024-03-07T15:15:13;32.50;;;18.60;;
19219;SDS011;9744;49.364;7.484;2024-03-07T15:17:41;31.27;;;18.40;;
19219;SDS011;9744;49.364;7.484;2024-03-07T15:20:10;31.98;;;18.20;;
19219;SDS011;9744;49.364;7.484;2024-03-07T15:22:47;31.08;;;18.42;;
19219;SDS011;9744;49.364;7.484;2024-03-07T15:25:17;34.40;;;19.02;;
19219;SDS011;9744;49.364;7.484;2024-03-07T15:27:44;32.95;;;18.00;;
19219;SDS011;9744;49.364;7.484;2024-03-07T15:30:14;36.28;;;17.98;;
19219;SDS011;9744;49.364;7.484;2024-03-07T15:32:42;28.45;;;16.77;;
19219;SDS011;9744;49.364;7.484;2024-03-07T15:35:11;30.90;;;17.08;;
19219;SDS011;9744;49.364;7.484;2024-03-07T15:37:47;33.13;;;19.58;;
19219;SDS011;9744;49.364;7.484;2024-03-07T15:40:15;38.78;;;22.20;;
19219;SDS011;9744;49.364;7.484;2024-03-07T15:42:44;30.55;;;18.15;;
19219;SDS011;9744;49.364;7.484;2024-03-07T15:45:13;28.98;;;16.65;;
19219;SDS011;9744;49.364;7.484;2024-03-07T15:47:42;29.75;;;15.90;;
19219;SDS011;9744;49.364;7.484;2024-03-07T15:50:11;30.10;;;16.55;;
19219;SDS011;9744;49.364;7.484;2024-03-07T15:52:39;29.50;;;15.95;;
19219;SDS011;9744;49.364;7.484;2024-03-07T15:55:07;27.20;;;16.35;;
19219;SDS011;9744;49.364;7.484;2024-03-07T15:57:42;30.27;;;17.02;;
19219;SDS011;9744;49.364;7.484;2024-03-07T16:00:12;28.58;;;16.25;;
19219;SDS011;9744;49.364;7.484;2024-03-07T16:02:50;28.85;;;15.88;;
19219;SDS011;9744;49.364;7.484;2024-03-07T16:05:23;30.35;;;16.95;;
19219;SDS011;9744;49.364;7.484;2024-03-07T16:07:51;29.52;;;17.25;;
19219;SDS011;9744;49.364;7.484;2024-03-07T16:10:19;32.17;;;17.70;;
19219;SDS011;9744;49.364;7.484;2024-03-07T16:12:49;33.65;;;17.52;;
19219;SDS011;9744;49.364;7.484;2024-03-07T16:15:16;35.72;;;18.13;;
19219;SDS011;9744;49.364;7.484;2024-03-07T16:17:45;33.08;;;16.77;;
19219;SDS011;9744;49.364;7.484;2024-03-07T16:20:13;29.05;;;16.17;;
19219;SDS011;9744;49.364;7.484;2024-03-07T16:22:42;26.05;;;15.82;;
19219;SDS011;9744;49.364;7.484;2024-03-07T16:25:12;30.42;;;15.82;;
19219;SDS011;9744;49.364;7.484;2024-03-07T16:27:41;28.63;;;15.70;;
19219;SDS011;9744;49.364;7.484;2024-03-07T16:30:09;28.40;;;16.30;;
19219;SDS011;9744;49.364;7.484;2024-03-07T16:32:39;31.00;;;16.73;;
19219;SDS011;9744;49.364;7.484;2024-03-07T16:35:07;33.63;;;18.40;;
19219;SDS011;9744;49.364;7.484;2024-03-07T16:37:38;36.25;;;18.83;;
19219;SDS011;9744;49.364;7.484;2024-03-07T16:40:08;36.95;;;19.85;;
19219;SDS011;9744;49.364;7.484;2024-03-07T16:42:42;29.20;;;16.55;;
19219;SDS011;9744;49.364;7.484;2024-03-07T16:45:16;27.65;;;16.20;;
19219;SDS011;9744;49.364;7.484;2024-03-07T16:47:45;36.40;;;17.85;;
19219;SDS011;9744;49.364;7.484;2024-03-07T16:50:16;30.73;;;18.27;;
19219;SDS011;9744;49.364;7.484;2024-03-07T16:52:44;45.28;;;21.92;;
19219;SDS011;9744;49.364;7.484;2024-03-07T16:55:16;55.78;;;30.30;;
19219;SDS011;9744;49.364;7.484;2024-03-07T16:57:45;42.72;;;22.58;;
19219;SDS011;9744;49.364;7.484;2024-03-07T17:00:14;35.25;;;18.98;;
19219;SDS011;9744;49.364;7.484;2024-03-07T17:02:52;35.97;;;18.80;;
19219;SDS011;9744;49.364;7.484;2024-03-07T17:05:21;33.70;;;18.80;;
19219;SDS011;9744;49.364;7.484;2024-03-07T17:07:48;29.75;;;17.67;;
19219;SDS011;9744;49.364;7.484;2024-03-07T17:10:17;33.05;;;18.70;;
19219;SDS011;9744;49.364;7.484;2024-03-07T17:12:45;31.45;;;19.00;;
19219;SDS011;9744;49.364;7.484;2024-03-07T17:15:14;34.50;;;17.65;;
19219;SDS011;9744;49.364;7.484;2024-03-07T17:17:42;33.83;;;18.23;;
19219;SDS011;9744;49.364;7.484;2024-03-07T17:20:12;33.10;;;17.35;;
19219;SDS011;9744;49.364;7.484;2024-03-07T17:22:39;55.85;;;27.45;;
19219;SDS011;9744;49.364;7.484;2024-03-07T17:28:15;30.40;;;18.75;;
19219;SDS011;9744;49.364;7.484;2024-03-07T17:30:45;31.98;;;17.73;;
19219;SDS011;9744;49.364;7.484;2024-03-07T17:33:13;34.55;;;18.40;;
19219;SDS011;9744;49.364;7.484;2024-03-07T17:35:41;35.88;;;18.88;;
19219;SDS011;9744;49.364;7.484;2024-03-07T17:38:10;34.58;;;19.02;;
19219;SDS011;9744;49.364;7.484;2024-03-07T17:40:39;35.90;;;18.92;;
19219;SDS011;9744;49.364;7.484;2024-03-07T17:43:08;35.40;;;19.17;;
19219;SDS011;9744;49.364;7.484;2024-03-07T17:45:38;33.03;;;19.02;;
19219;SDS011;9744;49.364;7.484;2024-03-07T17:48:06;38.45;;;19.85;;
19219;SDS011;9744;49.364;7.484;2024-03-07T17:50:36;34.97;;;19.73;;
19219;SDS011;9744;49.364;7.484;2024-03-07T17:56:00;32.78;;;18.15;;
19219;SDS011;9744;49.364;7.484;2024-03-07T17:58:27;33.03;;;18.85;;
19219;SDS011;9744;49.364;7.484;2024-03-07T18:00:56;34.63;;;18.10;;
19219;SDS011;9744;49.364;7.484;2024-03-07T18:03:23;32.05;;;18.40;;
19219;SDS011;9744;49.364;7.484;2024-03-07T18:05:53;35.67;;;19.52;;
19219;SDS011;9744;49.364;7.484;2024-03-07T18:08:20;50.65;;;24.38;;
19219;SDS011;9744;49.364;7.484;2024-03-07T18:10:47;50.00;;;24.63;;
19219;SDS011;9744;49.364;7.484;2024-03-07T18:13:15;50.65;;;25.23;;
19219;SDS011;9744;49.364;7.484;2024-03-07T18:15:43;32.85;;;18.67;;
19219;SDS011;9744;49.364;7.484;2024-03-07T18:18:12;34.03;;;17.73;;
19219;SDS011;9744;49.364;7.484;2024-03-07T18:20:41;33.95;;;19.08;;
19219;SDS011;9744;49.364;7.484;2024-03-07T18:23:09;28.60;;;17.13;;
19219;SDS011;9744;49.364;7.484;2024-03-07T18:25:36;31.50;;;17.90;;
19219;SDS011;9744;49.364;7.484;2024-03-07T18:28:04;31.33;;;18.10;;
19219;SDS011;9744;49.364;7.484;2024-03-07T18:30:33;33.03;;;18.02;;
19219;SDS011;9744;49.364;7.484;2024-03-07T18:33:02;31.27;;;18.23;;
19219;SDS011;9744;49.364;7.484;2024-03-07T18:35:31;34.88;;;19.88;;
19219;SDS011;9744;49.364;7.484;2024-03-07T18:37:59;38.80;;;19.63;;
19219;SDS011;9744;49.364;7.484;2024-03-07T18:40:27;31.88;;;19.23;;
19219;SDS011;9744;49.364;7.484;2024-03-07T18:43:00;34.63;;;19.05;;
19219;SDS011;9744;49.364;7.484;2024-03-07T18:45:32;33.50;;;18.33;;
19219;SDS011;9744;49.364;7.484;2024-03-07T18:48:01;32.40;;;17.60;;
19219;SDS011;9744;49.364;7.484;2024-03-07T18:50:33;29.17;;;16.85;;
19219;SDS011;9744;49.364;7.484;2024-03-07T18:53:03;32.35;;;19.23;;
19219;SDS011;9744;49.364;7.484;2024-03-07T18:55:32;32.35;;;17.55;;
19219;SDS011;9744;49.364;7.484;2024-03-07T18:58:01;33.17;;;18.58;;
19219;SDS011;9744;49.364;7.484;2024-03-07T19:00:30;33.33;;;18.15;;
19219;SDS011;9744;49.364;7.484;2024-03-07T19:02:59;31.20;;;17.77;;
19219;SDS011;9744;49.364;7.484;2024-03-07T19:05:27;33.45;;;18.73;;
19219;SDS011;9744;49.364;7.484;2024-03-07T19:07:56;34.58;;;17.77;;
19219;SDS011;9744;49.364;7.484;2024-03-07T19:10:24;38.10;;;18.55;;
19219;SDS011;9744;49.364;7.484;2024-03-07T19:12:55;38.60;;;20.92;;
19219;SDS011;9744;49.364;7.484;2024-03-07T19:15:23;32.50;;;18.80;;
19219;SDS011;9744;49.364;7.484;2024-03-07T19:17:50;31.27;;;18.10;;
19219;SDS011;9744;49.364;7.484;2024-03-07T19:20:18;34.42;;;19.05;;
19219;SDS011;9744;49.364;7.484;2024-03-07T19:29:31;50.33;;;26.75;;
19219;SDS011;9744;49.364;7.484;2024-03-07T19:31:58;37.55;;;20.60;;
19219;SDS011;9744;49.364;7.484;2024-03-07T19:34:37;39.15;;;18.92;;
19219;SDS011;9744;49.364;7.484;2024-03-07T19:37:10;33.00;;;18.27;;
19219;SDS011;9744;49.364;7.484;2024-03-07T19:39:41;32.78;;;17.77;;
19219;SDS011;9744;49.364;7.484;2024-03-07T19:48:00;31.52;;;18.85;;
19219;SDS011;9744;49.364;7.484;2024-03-07T19:50:30;31.73;;;17.77;;
19219;SDS011;9744;49.364;7.484;2024-03-07T19:52:58;34.33;;;19.23;;